Time;durP1;ratioP1;P1;durP2;ratioP2;P2;SDS_P1;SDS_P2;PMS_P1;PMS_P2;Temp;Humidity;BMP_temperature;BMP_pressure;BME280_temperature;BME280_humidity;BME280_pressure;Samples;Min_cycle;Max_cycle;Signal;HPM_P1;HPM_P2
2022/06/29 00:02:03;;;;;;;17.67;11.35;;;;;;;15.47;79.53;94991.50;1689751;83;21513;-55
2022/06/29 00:04:31;;;;;;;20.52;11.48;;;;;;;15.45;79.16;94982.89;1687461;83;21082;-54
2022/06/29 00:07:00;;;;;;;17.35;10.88;;;;;;;15.41;79.29;94990.02;1688296;83;21082;-54
2022/06/29 00:09:28;;;;;;;17.00;11.30;;;;;;;15.39;79.29;94987.56;1687670;83;21605;-54
2022/06/29 00:11:56;;;;;;;21.60;11.43;;;;;;;15.35;79.49;94984.95;1702184;83;21494;-54
2022/06/29 00:14:24;;;;;;;18.32;11.08;;;;;;;15.32;79.40;94987.29;1705853;83;21498;-56
2022/06/29 00:16:52;;;;;;;23.95;13.32;;;;;;;15.28;79.53;94976.97;1696110;83;21578;-54
2022/06/29 00:19:19;;;;;;;21.15;12.63;;;;;;;15.25;80.00;94986.23;1677110;83;21002;-54
2022/06/29 00:21:48;;;;;;;23.38;13.15;;;;;;;15.21;80.24;94980.08;1675882;84;21910;-55
2022/06/29 00:24:17;;;;;;;23.10;13.22;;;;;;;15.17;80.40;94983.65;1687922;83;21018;-54
2022/06/29 00:26:45;;;;;;;21.12;12.63;;;;;;;15.19;80.62;94990.12;1659617;84;21094;-56
2022/06/29 00:29:13;;;;;;;35.15;14.55;;;;;;;15.18;80.83;94989.34;1643379;84;21515;-55
2022/06/29 00:31:41;;;;;;;22.10;13.43;;;;;;;15.13;80.96;94994.15;1685573;83;21207;-54
2022/06/29 00:34:10;;;;;;;23.77;12.93;;;;;;;15.08;80.93;94992.03;1689598;83;21313;-54
2022/06/29 00:36:38;;;;;;;26.05;12.40;;;;;;;15.02;81.19;94990.36;1662802;83;20951;-53
2022/06/29 00:39:07;;;;;;;24.92;13.65;;;;;;;14.99;81.49;94990.67;1669176;83;21618;-53
2022/06/29 00:41:43;;;;;;;28.67;13.75;;;;;;;14.95;81.83;94995.63;1677942;84;21514;-55
2022/06/29 00:44:15;;;;;;;40.63;15.40;;;;;;;14.92;82.20;94991.02;1661431;83;21477;-53
2022/06/29 00:46:54;;;;;;;25.08;13.30;;;;;;;14.89;82.48;94987.81;1680344;85;21216;-54
2022/06/29 00:49:23;;;;;;;18.20;11.12;;;;;;;14.89;82.50;94982.88;1694664;83;21019;-54
2022/06/29 00:52:09;;;;;;;30.12;13.53;;;;;;;14.90;82.42;94984.41;1690242;83;21054;-54
2022/06/29 00:54:49;;;;;;;34.75;15.80;;;;;;;14.87;82.21;94980.59;1684004;83;21073;-53
2022/06/29 00:57:23;;;;;;;33.23;14.95;;;;;;;14.86;82.46;94981.83;1678873;83;21105;-54
2022/06/29 00:59:59;;;;;;;22.32;14.35;;;;;;;14.82;82.55;94974.28;1694568;83;21763;-54
2022/06/29 01:02:32;;;;;;;22.60;13.03;;;;;;;14.76;82.61;94976.16;1689874;83;21520;-54
2022/06/29 01:04:59;;;;;;;20.57;13.62;;;;;;;14.73;82.82;94979.09;1685881;83;20974;-56
2022/06/29 01:07:31;;;;;;;19.15;13.00;;;;;;;14.71;82.93;94972.66;1706072;83;21019;-53
2022/06/29 01:09:59;;;;;;;29.32;14.65;;;;;;;14.69;83.13;94977.12;1677476;83;21053;-54
2022/06/29 01:12:27;;;;;;;32.98;14.83;;;;;;;14.72;83.37;94972.80;1686050;83;21944;-53
2022/06/29 01:14:55;;;;;;;19.17;12.73;;;;;;;14.76;83.20;94969.24;1709490;83;21533;-54
2022/06/29 01:17:23;;;;;;;19.90;12.07;;;;;;;14.81;82.71;94965.07;1707164;83;21576;-54
2022/06/29 01:19:51;;;;;;;21.27;12.75;;;;;;;14.78;82.31;94956.32;1676694;84;20984;-53
2022/06/29 01:22:21;;;;;;;24.30;13.88;;;;;;;14.75;82.21;94951.09;1679110;84;21006;-54
2022/06/29 01:24:50;;;;;;;32.42;14.20;;;;;;;14.74;82.25;94955.09;1678129;84;21255;-54
2022/06/29 01:27:19;;;;;;;22.22;13.78;;;;;;;14.75;82.30;94956.63;1691883;83;21590;-54
2022/06/29 01:29:48;;;;;;;17.55;11.80;;;;;;;14.75;82.39;94956.63;1690567;83;21169;-54
2022/06/29 01:32:17;;;;;;;25.32;12.78;;;;;;;14.71;82.39;94946.34;1691945;83;21221;-54
2022/06/29 01:34:44;;;;;;;25.15;13.68;;;;;;;14.61;82.63;94939.30;1691957;83;21063;-55
2022/06/29 01:37:13;;;;;;;24.70;13.50;;;;;;;14.54;83.03;94934.72;1673876;83;21207;-54
2022/06/29 01:39:41;;;;;;;26.93;13.68;;;;;;;14.52;82.89;94937.97;1679997;84;21446;-54
2022/06/29 01:42:09;;;;;;;21.23;11.93;;;;;;;14.53;83.02;94948.41;1679957;83;21003;-54
2022/06/29 01:44:38;;;;;;;24.00;12.95;;;;;;;14.57;82.84;94953.16;1698714;83;21018;-54
2022/06/29 01:47:07;;;;;;;16.80;11.90;;;;;;;14.59;82.68;94952.84;1675847;84;21115;-54
2022/06/29 01:49:35;;;;;;;19.42;12.50;;;;;;;14.63;82.33;94950.67;1690393;83;21255;-54
2022/06/29 01:52:03;;;;;;;25.50;13.30;;;;;;;14.63;82.26;94947.91;1677956;85;21094;-54
2022/06/29 01:54:32;;;;;;;22.95;12.28;;;;;;;14.65;82.25;94957.14;1681164;84;20973;-54
2022/06/29 01:57:00;;;;;;;19.10;12.93;;;;;;;14.66;82.08;94953.88;1685210;83;21011;-54
2022/06/29 01:59:28;;;;;;;19.27;11.60;;;;;;;14.65;81.85;94955.13;1687163;82;21553;-55
2022/06/29 02:01:56;;;;;;;24.30;12.88;;;;;;;14.63;81.77;94954.83;1693685;83;21171;-55
2022/06/29 02:04:24;;;;;;;11.50;9.78;;;;;;;14.62;82.10;94961.60;1684004;83;21454;-54
2022/06/29 02:06:51;;;;;;;16.95;9.83;;;;;;;14.62;82.21;94967.14;1687527;83;21463;-55
2022/06/29 02:09:19;;;;;;;20.37;12.33;;;;;;;14.63;81.81;94962.38;1651572;84;21328;-52
2022/06/29 02:11:47;;;;;;;15.90;9.60;;;;;;;14.58;81.89;94958.23;1679656;83;20955;-56
2022/06/29 02:14:15;;;;;;;13.53;9.05;;;;;;;14.58;81.85;94946.38;1688146;83;21243;-54
2022/06/29 02:16:43;;;;;;;11.95;9.40;;;;;;;14.58;81.52;94950.53;1688053;83;21092;-55
2022/06/29 02:19:12;;;;;;;15.23;10.25;;;;;;;14.54;81.47;94949.34;1698546;83;20979;-53
2022/06/29 02:21:40;;;;;;;15.18;10.93;;;;;;;14.53;81.82;94954.73;1707905;83;21093;-54
2022/06/29 02:24:08;;;;;;;18.50;10.35;;;;;;;14.47;82.24;94951.04;1694740;83;20997;-53
2022/06/29 02:26:37;;;;;;;14.68;10.60;;;;;;;14.42;82.75;94955.08;1684727;83;21285;-54
2022/06/29 02:29:05;;;;;;;16.12;10.50;;;;;;;14.39;83.19;94940.77;1696493;83;21029;-53
2022/06/29 02:37:06;;;;;;;15.15;12.28;;;;;;;14.44;83.67;94944.30;1680766;83;21049;-54
2022/06/29 02:39:36;;;;;;;17.55;12.88;;;;;;;14.36;83.62;94945.09;1679077;84;21764;-53
2022/06/29 02:42:05;;;;;;;22.32;15.50;;;;;;;14.35;83.94;94947.72;1675260;83;21168;-54
2022/06/29 02:44:33;;;;;;;23.32;15.80;;;;;;;14.35;83.50;94947.09;1683352;83;21739;-54
2022/06/29 02:47:01;;;;;;;25.65;15.80;;;;;;;14.33;83.70;94946.04;1690006;83;21160;-53
2022/06/29 02:49:29;;;;;;;26.42;14.95;;;;;;;14.30;83.34;94938.04;1687088;83;21042;-54
2022/06/29 02:51:57;;;;;;;25.40;14.85;;;;;;;14.23;83.33;94941.75;1669698;83;21571;-54
2022/06/29 02:54:25;;;;;;;27.35;14.55;;;;;;;14.19;83.70;94942.53;1650610;85;21088;-54
2022/06/29 02:56:53;;;;;;;24.30;13.22;;;;;;;14.23;83.93;94941.75;1679755;84;21091;-54
2022/06/29 02:59:22;;;;;;;21.65;13.93;;;;;;;14.24;84.09;94934.38;1657010;84;21600;-54
2022/06/29 03:01:50;;;;;;;32.45;15.68;;;;;;;14.23;84.23;94937.00;1677390;84;20962;-54
2022/06/29 03:04:18;;;;;;;33.08;16.12;;;;;;;14.19;84.57;94948.07;1711865;83;21091;-52
2022/06/29 03:06:47;;;;;;;25.08;15.93;;;;;;;14.18;84.95;94941.00;1708876;83;21121;-53
2022/06/29 03:09:15;;;;;;;25.72;12.35;;;;;;;14.24;85.12;94934.38;1703400;83;21521;-53
2022/06/29 03:11:43;;;;;;;19.20;12.07;;;;;;;14.30;85.02;94932.50;1701964;83;21085;-56
2022/06/29 03:14:11;;;;;;;24.90;13.62;;;;;;;14.35;85.01;94937.40;1699437;83;21007;-53
2022/06/29 03:16:40;;;;;;;47.35;16.25;;;;;;;14.43;85.18;94940.75;1678924;84;21283;-55
2022/06/29 03:19:08;;;;;;;32.30;19.00;;;;;;;14.58;85.19;94947.16;1632109;83;21120;-53
2022/06/29 03:21:37;;;;;;;29.40;16.70;;;;;;;14.68;84.62;94934.83;1682302;84;21012;-53
2022/06/29 03:24:07;;;;;;;27.95;15.53;;;;;;;14.71;84.01;94931.11;1669020;84;21054;-54
2022/06/29 03:26:35;;;;;;;26.80;15.28;;;;;;;14.72;83.87;94930.48;1680231;83;21128;-53
2022/06/29 03:29:04;;;;;;;26.02;14.73;;;;;;;14.77;83.68;94934.77;1709380;83;21154;-53
2022/06/29 03:31:32;;;;;;;24.72;15.18;;;;;;;14.83;83.70;94932.87;1683767;83;21434;-53
2022/06/29 03:34:01;;;;;;;27.07;15.28;;;;;;;14.93;83.60;94928.84;1673421;83;21104;-54
2022/06/29 03:36:30;;;;;;;25.95;14.80;;;;;;;15.01;83.21;94925.10;1693594;83;21021;-55
2022/06/29 03:38:58;;;;;;;20.43;13.15;;;;;;;15.07;82.96;94928.14;1696340;83;21035;-54
2022/06/29 03:41:26;;;;;;;29.67;13.90;;;;;;;15.18;82.55;94923.45;1699163;83;21282;-54
2022/06/29 03:43:53;;;;;;;23.40;13.55;;;;;;;15.24;82.07;94924.33;1681893;84;20993;-56
2022/06/29 03:46:22;;;;;;;23.60;13.95;;;;;;;15.30;81.87;94927.39;1686798;83;21071;-54
2022/06/29 03:48:50;;;;;;;19.57;13.75;;;;;;;15.40;81.71;94920.53;1681770;84;21013;-54
2022/06/29 03:51:18;;;;;;;20.85;12.88;;;;;;;15.46;81.38;94914.50;1685809;83;21114;-54
2022/06/29 03:53:47;;;;;;;19.77;12.35;;;;;;;15.50;81.05;94912.30;1691463;83;21176;-55
2022/06/29 03:56:15;;;;;;;20.30;12.03;;;;;;;15.56;80.96;94909.64;1691578;83;21022;-54
2022/06/29 03:58:43;;;;;;;16.87;10.98;;;;;;;15.66;80.66;94909.09;1658214;84;21560;-55
2022/06/29 04:01:11;;;;;;;20.43;11.38;;;;;;;15.77;80.23;94899.56;1653909;85;21189;-57
2022/06/29 04:03:39;;;;;;;13.72;9.85;;;;;;;15.86;80.03;94902.27;1661881;83;20976;-56
2022/06/29 04:06:10;;;;;;;16.17;10.85;;;;;;;15.93;79.57;94889.39;1671580;84;21015;-54
2022/06/29 04:08:37;;;;;;;15.15;10.48;;;;;;;15.99;79.24;94893.05;1684754;83;20973;-54
2022/06/29 04:11:48;;;;;;;14.78;9.08;;;;;;;16.07;79.04;94899.73;1677838;83;21048;-54
2022/06/29 04:13:36;;;;;;;22.73;10.10;;;;;;;16.21;78.73;94907.31;1696498;83;21498;-54
2022/06/29 04:16:05;;;;;;;20.55;11.00;;;;;;;16.33;78.03;94902.84;1700832;83;21060;-55
2022/06/29 04:18:35;;;;;;;18.65;11.08;;;;;;;16.41;77.59;94911.58;1690447;83;21089;-55
2022/06/29 04:21:06;;;;;;;20.52;11.22;;;;;;;16.44;77.26;94900.89;1687558;83;21126;-55
2022/06/29 04:23:35;;;;;;;20.77;10.90;;;;;;;16.50;77.19;94900.35;1696585;83;21061;-54
2022/06/29 04:26:03;;;;;;;16.52;11.08;;;;;;;16.62;76.88;94897.90;1709342;83;21686;-54
2022/06/29 04:28:31;;;;;;;24.45;12.28;;;;;;;16.73;76.37;94892.52;1700893;83;20963;-54
2022/06/29 04:31:00;;;;;;;19.60;12.25;;;;;;;16.82;76.01;94884.05;1707262;83;21101;-53
2022/06/29 04:33:28;;;;;;;17.52;10.13;;;;;;;16.84;75.83;94886.50;1713263;83;21249;-54
2022/06/29 04:35:56;;;;;;;16.57;11.35;;;;;;;16.91;75.82;94882.55;1678836;83;20975;-57
2022/06/29 04:38:24;;;;;;;20.02;13.32;;;;;;;16.98;75.46;94885.69;1676817;83;21715;-55
2022/06/29 04:40:52;;;;;;;16.90;10.25;;;;;;;17.06;75.01;94880.48;1687465;83;21172;-56
2022/06/29 04:43:20;;;;;;;16.95;10.90;;;;;;;17.14;74.80;94888.54;1680709;84;21988;-54
2022/06/29 04:48:35;;;;;;;17.23;10.23;;;;;;;17.31;74.38;94892.30;1689753;83;21008;-54
2022/06/29 04:51:02;;;;;;;19.62;9.83;;;;;;;17.36;74.06;94897.19;1677156;85;21096;-54
2022/06/29 04:53:30;;;;;;;13.62;9.00;;;;;;;17.44;73.78;94892.75;1698931;83;21069;-54
2022/06/29 04:55:58;;;;;;;20.10;8.83;;;;;;;17.49;73.39;94892.80;1673357;83;21261;-55
2022/06/29 04:58:27;;;;;;;16.70;9.43;;;;;;;17.57;73.11;94886.97;1698888;83;20965;-54
2022/06/29 05:00:55;;;;;;;11.70;9.30;;;;;;;17.65;72.76;94888.70;1675107;83;21028;-54
2022/06/29 05:03:23;;;;;;;13.78;8.98;;;;;;;17.67;72.49;94884.80;1663988;83;21572;-53
2022/06/29 05:05:51;;;;;;;22.82;10.50;;;;;;;17.69;72.39;94889.24;1680731;83;21057;-53
2022/06/29 05:08:21;;;;;;;21.52;10.40;;;;;;;17.72;72.45;94889.03;1691937;83;20943;-54
2022/06/29 05:10:50;;;;;;;12.75;9.25;;;;;;;17.85;72.40;94890.05;1685451;84;20970;-54
2022/06/29 05:13:18;;;;;;;25.97;9.80;;;;;;;17.99;71.88;94887.16;1675787;84;21039;-53
2022/06/29 05:15:46;;;;;;;12.95;8.98;;;;;;;18.16;71.37;94884.55;1684663;83;21151;-53
2022/06/29 05:18:15;;;;;;;15.80;9.35;;;;;;;18.28;70.97;94876.57;1653867;85;21083;-53
2022/06/29 05:20:43;;;;;;;14.28;9.78;;;;;;;18.42;70.50;94872.15;1677961;83;21379;-55
2022/06/29 05:23:12;;;;;;;13.78;8.83;;;;;;;18.51;70.14;94874.12;1659938;83;21569;-53
2022/06/29 05:25:41;;;;;;;15.53;8.30;;;;;;;18.58;69.70;94879.23;1678684;85;21611;-53
2022/06/29 05:28:11;;;;;;;20.20;9.23;;;;;;;18.64;69.06;94880.02;1686263;83;21010;-53
2022/06/29 05:30:40;;;;;;;13.43;8.25;;;;;;;18.72;68.60;94872.75;1707204;83;20959;-53
2022/06/29 05:33:08;;;;;;;14.35;8.25;;;;;;;18.80;68.15;94872.41;1700607;83;21132;-54
2022/06/29 05:35:37;;;;;;;12.07;8.60;;;;;;;18.87;68.10;94874.72;1670292;83;21455;-54
2022/06/29 05:38:05;;;;;;;24.65;9.53;;;;;;;18.90;67.82;94875.15;1620854;85;21032;-54
2022/06/29 05:40:34;;;;;;;41.60;9.93;;;;;;;18.95;67.84;94878.59;1601742;87;21039;-54
2022/06/29 05:43:03;;;;;;;25.45;9.38;;;;;;;18.99;67.85;94880.52;1618466;87;21094;-56
2022/06/29 05:45:30;;;;;;;14.68;8.50;;;;;;;19.06;67.58;94880.06;1617342;86;22570;-58
2022/06/29 05:47:58;;;;;;;15.83;8.98;;;;;;;19.12;67.42;94880.85;1645215;85;21460;-57
2022/06/29 05:50:25;;;;;;;15.45;7.72;;;;;;;19.20;67.26;94877.73;1653127;84;21104;-57
2022/06/29 05:52:53;;;;;;;14.07;7.65;;;;;;;19.31;67.30;94875.63;1625780;85;21148;-59
2022/06/29 05:55:20;;;;;;;15.45;9.18;;;;;;;19.43;66.93;94868.23;1656739;83;21018;-53
2022/06/29 05:57:48;;;;;;;18.27;8.15;;;;;;;19.53;66.17;94875.10;1681544;83;21226;-58
2022/06/29 06:00:15;;;;;;;14.10;8.53;;;;;;;19.66;65.95;94873.23;1688222;82;21073;-56
2022/06/29 06:02:43;;;;;;;10.80;8.13;;;;;;;19.80;65.55;94872.28;1683823;83;21039;-55
2022/06/29 06:05:10;;;;;;;17.73;8.43;;;;;;;19.94;65.27;94877.63;1676977;82;21495;-53
2022/06/29 06:07:37;;;;;;;15.45;8.55;;;;;;;20.10;64.96;94869.95;1685941;83;21492;-63
2022/06/29 06:10:06;;;;;;;26.68;13.18;;;;;;;20.27;64.45;94863.75;1678190;82;21283;-60
2022/06/29 06:12:34;;;;;;;15.45;9.88;;;;;;;20.43;63.89;94863.00;1658951;84;21062;-60
2022/06/29 06:15:03;;;;;;;10.63;8.33;;;;;;;20.60;63.22;94877.74;1652486;84;21348;-58
2022/06/29 06:17:41;;;;;;;9.83;7.80;;;;;;;20.79;62.75;94875.95;1634403;85;21003;-62
2022/06/29 06:20:11;;;;;;;9.38;7.72;;;;;;;20.95;61.85;94867.55;1651218;84;21038;-61
2022/06/29 06:22:38;;;;;;;14.07;9.50;;;;;;;21.12;61.10;94868.94;1652304;84;21234;-60
2022/06/29 06:25:06;;;;;;;13.32;9.28;;;;;;;21.23;60.28;94864.70;1629573;85;21617;-58
2022/06/29 06:27:34;;;;;;;11.83;8.35;;;;;;;21.36;59.72;94862.13;1655614;85;21023;-59
2022/06/29 06:30:02;;;;;;;12.07;8.00;;;;;;;21.47;59.30;94854.44;1650097;85;21050;-59
2022/06/29 06:32:30;;;;;;;18.60;8.30;;;;;;;21.56;58.45;94845.76;1646778;84;21600;-58
2022/06/29 06:34:58;;;;;;;18.17;7.37;;;;;;;21.67;58.44;94846.38;1680950;83;21269;-59
2022/06/29 06:37:25;;;;;;;12.60;6.83;;;;;;;21.81;58.10;94855.09;1670368;83;21058;-58
2022/06/29 06:42:52;;;;;;;9.48;7.03;;;;;;;22.05;56.74;94846.92;1655490;83;21587;-59
2022/06/29 06:45:20;;;;;;;16.67;7.65;;;;;;;22.17;56.47;94837.16;1679149;83;21620;-58
2022/06/29 06:47:48;;;;;;;10.93;7.28;;;;;;;22.32;56.01;94834.73;1668656;83;21218;-59
2022/06/29 06:50:16;;;;;;;11.35;7.17;;;;;;;22.44;55.95;94830.61;1669502;83;21016;-54
2022/06/29 06:52:43;;;;;;;10.55;7.15;;;;;;;22.57;55.49;94826.55;1691579;83;21048;-55
2022/06/29 06:55:10;;;;;;;14.95;6.95;;;;;;;22.69;54.97;94818.14;1665881;83;21024;-56
2022/06/29 06:57:38;;;;;;;9.58;6.55;;;;;;;22.82;54.32;94819.69;1684151;83;21077;-58
2022/06/29 07:00:09;;;;;;;7.30;5.50;;;;;;;22.96;53.47;94818.53;1664917;83;21296;-54
2022/06/29 07:02:38;;;;;;;10.32;6.65;;;;;;;23.10;52.00;94818.77;1685413;83;21097;-61
2022/06/29 07:05:06;;;;;;;8.18;6.67;;;;;;;23.22;52.04;94818.03;1684680;83;21078;-52
2022/06/29 07:07:33;;;;;;;9.03;6.85;;;;;;;23.35;52.22;94816.08;1657455;83;21152;-56
2022/06/29 07:10:01;;;;;;;6.37;5.47;;;;;;;23.50;52.45;94821.25;1680475;83;21095;-57
2022/06/29 07:12:28;;;;;;;7.47;5.45;;;;;;;23.64;52.49;94813.04;1663110;83;21350;-58
2022/06/29 07:14:56;;;;;;;13.25;6.72;;;;;;;23.77;52.08;94816.69;1659961;84;21011;-53
2022/06/29 07:17:23;;;;;;;11.53;6.85;;;;;;;23.91;51.75;94823.94;1679565;83;21080;-60
2022/06/29 07:19:51;;;;;;;13.58;6.45;;;;;;;24.05;51.35;94817.84;1680604;83;21030;-54
2022/06/29 07:22:19;;;;;;;9.58;6.55;;;;;;;24.21;51.19;94810.48;1684507;83;21030;-54
2022/06/29 07:24:46;;;;;;;7.87;6.10;;;;;;;24.37;50.44;94805.25;1684146;82;21507;-57
2022/06/29 07:27:13;;;;;;;6.35;5.53;;;;;;;24.53;49.81;94805.66;1687321;82;21105;-59
2022/06/29 07:29:41;;;;;;;6.12;5.53;;;;;;;24.65;49.70;94802.11;1683121;83;21026;-58
2022/06/29 07:32:09;;;;;;;8.93;5.30;;;;;;;24.81;50.07;94796.84;1678366;82;21672;-61
2022/06/29 07:34:37;;;;;;;9.58;5.90;;;;;;;25.00;49.37;94790.48;1685506;83;21097;-61
2022/06/29 07:37:06;;;;;;;11.08;7.62;;;;;;;25.16;48.89;94794.28;1685781;82;48480;-59
2022/06/29 07:39:34;;;;;;;6.28;5.55;;;;;;;25.31;48.75;94793.13;1696531;83;20979;-60
2022/06/29 07:42:01;;;;;;;6.00;5.22;;;;;;;25.47;48.07;94790.63;1678910;83;21050;-56
2022/06/29 07:44:30;;;;;;;6.45;5.37;;;;;;;25.60;47.73;94788.55;1685679;83;21592;-62
2022/06/29 07:46:58;;;;;;;8.85;5.58;;;;;;;25.77;47.74;94780.49;1660236;83;21040;-62
2022/06/29 07:49:26;;;;;;;5.40;4.50;;;;;;;25.95;47.08;94785.99;1684785;83;21262;-60
2022/06/29 07:51:54;;;;;;;4.78;4.37;;;;;;;26.15;46.50;94786.69;1686956;83;21211;-63
2022/06/29 07:54:21;;;;;;;10.43;4.78;;;;;;;26.33;45.19;94791.39;1682018;83;21011;-60
2022/06/29 07:56:48;;;;;;;5.17;4.45;;;;;;;26.48;44.56;94784.52;1683622;83;21024;-62
2022/06/29 07:59:15;;;;;;;8.08;5.05;;;;;;;26.60;44.09;94785.77;1691594;83;21066;-65
2022/06/29 08:01:44;;;;;;;5.25;4.45;;;;;;;26.74;44.32;94782.21;1682482;83;21144;-58
2022/06/29 08:04:11;;;;;;;6.28;4.05;;;;;;;26.91;44.41;94776.89;1680948;83;21059;-57
2022/06/29 08:06:39;;;;;;;7.62;4.03;;;;;;;27.10;42.32;94776.80;1685765;83;21042;-58
2022/06/29 08:09:06;;;;;;;4.60;3.85;;;;;;;27.30;42.77;94773.16;1652924;83;21967;-57
2022/06/29 08:11:34;;;;;;;5.47;4.33;;;;;;;27.48;41.77;94773.55;1676760;83;21053;-58
2022/06/29 08:14:01;;;;;;;6.80;4.22;;;;;;;27.63;41.23;94763.73;1680429;82;21230;-63
2022/06/29 08:16:29;;;;;;;10.23;3.98;;;;;;;27.80;40.68;94767.50;1691502;83;20998;-63
2022/06/29 08:18:56;;;;;;;7.83;3.83;;;;;;;27.97;41.18;94758.59;1685343;83;21017;-63
2022/06/29 08:21:24;;;;;;;10.23;3.90;;;;;;;28.14;40.33;94758.20;1660605;82;21029;-65
2022/06/29 08:23:52;;;;;;;5.42;4.45;;;;;;;28.31;39.62;94771.84;1652363;83;22366;-61
2022/06/29 08:26:20;;;;;;;4.85;3.83;;;;;;;28.48;39.15;94771.42;1682592;83;21234;-64
2022/06/29 08:28:47;;;;;;;9.73;3.87;;;;;;;28.64;38.75;94766.52;1684440;83;21005;-59
2022/06/29 08:31:16;;;;;;;6.53;4.20;;;;;;;28.80;38.25;94769.46;1690354;83;21597;-63
2022/06/29 08:33:45;;;;;;;4.60;3.52;;;;;;;28.93;38.40;94762.23;1689232;83;21041;-61
2022/06/29 08:36:12;;;;;;;5.12;3.90;;;;;;;29.08;39.22;94760.78;1680988;83;21023;-62
2022/06/29 08:38:40;;;;;;;6.40;3.70;;;;;;;29.25;38.71;94763.78;1679764;83;21298;-62
2022/06/29 08:41:08;;;;;;;6.40;3.33;;;;;;;29.40;38.37;94758.09;1680719;83;21465;-61
2022/06/29 08:43:36;;;;;;;5.78;4.17;;;;;;;29.52;37.13;94756.40;1682913;83;21067;-62
2022/06/29 08:46:04;;;;;;;8.30;3.60;;;;;;;29.62;36.63;94753.81;1658387;83;21070;-64
2022/06/29 08:48:32;;;;;;;4.05;3.47;;;;;;;29.74;37.21;94748.48;1664135;84;21148;-58
2022/06/29 08:51:00;;;;;;;8.60;4.12;;;;;;;29.86;36.28;94746.06;1678023;83;21217;-63
2022/06/29 08:53:27;;;;;;;6.78;3.75;;;;;;;30.01;36.00;94756.70;1673241;83;21534;-60
2022/06/29 08:55:55;;;;;;;14.78;4.33;;;;;;;30.11;35.32;94752.61;1666949;83;21639;-66
2022/06/29 08:58:24;;;;;;;6.25;3.80;;;;;;;30.21;35.66;94757.75;1682510;83;21057;-67
2022/06/29 09:00:52;;;;;;;5.03;2.80;;;;;;;30.30;34.22;94749.36;1686924;83;21549;-64
2022/06/29 09:03:20;;;;;;;3.50;2.72;;;;;;;30.35;34.81;94754.74;1672660;82;21203;-61
2022/06/29 09:05:49;;;;;;;3.10;2.80;;;;;;;30.40;34.55;94755.94;1683593;83;21070;-65
2022/06/29 09:08:17;;;;;;;4.95;2.70;;;;;;;30.46;34.50;94755.05;1686819;83;21028;-66
2022/06/29 09:10:45;;;;;;;9.05;3.10;;;;;;;30.53;33.57;94751.39;1678618;83;22101;-61
2022/06/29 09:13:22;;;;;;;3.58;3.17;;;;;;;30.62;32.23;94757.91;1653971;83;21050;-62
2022/06/29 09:16:00;;;;;;;7.97;2.92;;;;;;;30.72;31.87;94758.03;1684440;83;21156;-60
2022/06/29 09:18:32;;;;;;;5.40;2.70;;;;;;;30.70;31.57;94757.86;1686637;82;21179;-63
2022/06/29 09:21:03;;;;;;;4.30;2.72;;;;;;;30.67;30.89;94750.50;1654273;83;21667;-62
2022/06/29 09:23:32;;;;;;;6.17;3.12;;;;;;;30.68;30.49;94742.80;1675046;83;21105;-62
2022/06/29 09:25:59;;;;;;;5.58;3.10;;;;;;;30.68;30.62;94744.22;1661659;83;21045;-61
2022/06/29 09:28:34;;;;;;;8.23;2.70;;;;;;;30.75;29.38;94744.84;1686569;83;21248;-62
2022/06/29 09:31:02;;;;;;;8.95;2.95;;;;;;;30.89;29.07;94740.35;1660433;83;21137;-62
2022/06/29 09:33:34;;;;;;;6.45;2.58;;;;;;;30.99;29.28;94739.04;1642728;84;21021;-63
2022/06/29 09:36:14;;;;;;;3.98;2.80;;;;;;;31.11;29.22;94733.77;1673623;83;21053;-64
2022/06/29 09:38:42;;;;;;;3.50;2.50;;;;;;;31.24;30.40;94732.70;1681157;83;21507;-66
2022/06/29 09:41:14;;;;;;;3.10;2.52;;;;;;;31.31;29.96;94729.78;1690679;83;21148;-64
2022/06/29 09:43:45;;;;;;;;;;;;;;;31.40;30.27;94734.79;1685970;83;21113;-61
2022/06/29 09:46:16;;;;;;;4.90;2.87;;;;;;;31.51;29.43;94721.50;1671233;83;20239;-56
2022/06/29 09:48:52;;;;;;;2.58;2.20;;;;;;;31.59;29.19;94720.00;1675737;83;21064;-62
2022/06/29 09:51:31;;;;;;;2.77;2.40;;;;;;;31.66;28.99;94724.88;1682816;83;20998;-57
2022/06/29 09:54:04;;;;;;;2.92;2.40;;;;;;;31.71;28.53;94725.28;1646841;83;22187;-58
2022/06/29 09:56:33;;;;;;;4.08;2.67;;;;;;;31.78;29.24;94713.07;1687353;82;21001;-57
2022/06/29 09:59:02;;;;;;;4.87;2.35;;;;;;;31.88;28.92;94708.27;1680948;83;21526;-60
2022/06/29 10:04:16;;;;;;;6.60;2.47;;;;;;;32.16;28.94;94704.11;1617855;84;21041;-54
2022/06/29 10:06:45;;;;;;;5.75;2.80;;;;;;;32.30;27.95;94706.69;1693349;83;21567;-57
2022/06/29 10:09:12;;;;;;;5.00;2.67;;;;;;;32.32;27.71;94704.77;1685447;83;21023;-56
2022/06/29 10:15:29;;;;;;;2.77;2.20;;;;;;;32.34;27.47;94689.92;1685317;83;22009;-56
2022/06/29 10:18:32;;;;;;;3.08;2.50;;;;;;;32.45;26.35;94690.13;1662482;83;21039;-58
2022/06/29 10:20:59;;;;;;;3.98;2.30;;;;;;;32.49;26.84;94686.84;1684124;83;21166;-57
2022/06/29 10:23:57;;;;;;;8.75;2.70;;;;;;;32.53;26.36;94679.38;1685430;83;21082;-56
2022/06/29 10:26:35;;;;;;;8.18;2.50;;;;;;;32.57;26.98;94673.98;1685212;83;21392;-55
2022/06/29 10:29:22;;;;;;;5.42;2.85;;;;;;;32.72;26.61;94670.16;1669033;83;21598;-54
2022/06/29 10:32:01;;;;;;;6.28;2.83;;;;;;;32.84;26.17;94674.73;1683902;83;21693;-57
2022/06/29 10:35:06;;;;;;;4.90;2.58;;;;;;;32.96;25.92;94674.22;1688901;82;21786;-57
2022/06/29 10:37:15;;;;;;;4.15;2.75;;;;;;;33.00;25.46;94669.50;1655971;84;21070;-54
2022/06/29 10:39:51;;;;;;;3.90;2.20;;;;;;;33.04;25.30;94671.23;1685770;83;21053;-57
2022/06/29 10:45:24;;;;;;;6.10;2.55;;;;;;;33.47;25.85;94664.58;1680076;83;21076;-57
2022/06/29 10:47:58;;;;;;;3.37;1.92;;;;;;;33.92;26.39;94662.23;1677350;83;22553;-58
2022/06/29 10:50:28;;;;;;;6.78;2.80;;;;;;;34.37;25.06;94664.17;1681694;83;21004;-58
2022/06/29 10:53:05;;;;;;;6.78;2.72;;;;;;;34.69;25.21;94665.76;1680549;83;21890;-59
2022/06/29 10:55:34;;;;;;;3.22;2.20;;;;;;;35.00;24.87;94667.25;1688844;83;21000;-53
2022/06/29 10:58:02;;;;;;;2.65;2.45;;;;;;;35.40;24.19;94664.30;1687560;83;21152;-58
2022/06/29 11:00:43;;;;;;;3.33;2.65;;;;;;;35.70;23.90;94666.37;1684595;83;21034;-56
2022/06/29 11:03:25;;;;;;;2.98;2.20;;;;;;;35.90;24.10;94659.09;1651553;84;21219;-59
2022/06/29 11:17:02;;;;;;;6.67;2.55;;;;;;;36.99;23.25;94631.70;1636809;83;21100;-56
2022/06/29 11:19:32;;;;;;;3.10;2.17;;;;;;;37.20;22.31;94632.30;1690018;83;21035;-53
2022/06/29 11:22:18;;;;;;;2.30;2.05;;;;;;;37.48;21.10;94626.09;1682575;82;21125;-54
2022/06/29 11:24:59;;;;;;;4.97;2.08;;;;;;;37.82;21.37;94630.29;1690030;83;21031;-59
2022/06/29 11:27:37;;;;;;;;;;;;;;;38.14;21.56;94632.91;1685224;83;21847;-55
2022/06/29 11:30:09;;;;;;;4.08;1.67;;;;;;;38.46;21.13;94622.48;1672703;82;21125;-57
2022/06/29 11:32:42;;;;;;;3.87;2.30;;;;;;;38.69;21.67;94623.06;1687854;82;21042;-55
2022/06/29 11:35:22;;;;;;;6.50;2.30;;;;;;;39.02;20.37;94623.44;1660193;82;21059;-55
2022/06/29 11:38:05;;;;;;;5.35;2.10;;;;;;;39.39;21.14;94628.30;1676301;83;21161;-55
2022/06/29 11:40:39;;;;;;;4.55;2.05;;;;;;;39.70;19.96;94624.17;1692968;82;21268;-53
2022/06/29 11:43:08;;;;;;;7.40;2.50;;;;;;;39.93;19.82;94623.88;1692306;83;21074;-58
2022/06/29 11:45:51;;;;;;;3.30;1.85;;;;;;;40.11;18.96;94612.50;1655935;84;21176;-56
2022/06/29 11:48:25;;;;;;;4.83;1.90;;;;;;;40.29;18.74;94615.58;1683703;83;21040;-56
2022/06/29 11:50:56;;;;;;;5.67;1.80;;;;;;;40.50;18.08;94617.38;1705620;82;21613;-54
2022/06/29 11:53:48;;;;;;;2.37;1.67;;;;;;;40.71;18.96;94620.48;1688822;83;21143;-55
2022/06/29 11:56:18;;;;;;;2.58;1.80;;;;;;;40.89;19.02;94612.69;1644147;86;21059;-56
2022/06/29 11:58:50;;;;;;;2.70;1.67;;;;;;;41.08;18.91;94608.55;1629756;86;21124;-59
2022/06/29 12:01:20;;;;;;;8.23;2.12;;;;;;;41.05;18.65;94598.98;1640868;86;21137;-60
2022/06/29 12:03:54;;;;;;;3.20;2.10;;;;;;;41.05;18.36;94593.22;1701132;83;20955;-55
2022/06/29 12:06:24;;;;;;;3.10;1.80;;;;;;;41.23;17.88;94590.45;1685519;83;21451;-57
2022/06/29 12:08:52;;;;;;;3.00;1.92;;;;;;;41.47;17.25;94592.96;1692943;83;21011;-55
2022/06/29 12:11:23;;;;;;;2.92;1.77;;;;;;;41.57;17.41;94583.26;1667558;83;21136;-54